Lake Fork, Illinois
Current Conditions -  °F | °C
As of 11:35 PM on Saturday 20 Dec 2014 (Local Time) from KAAA Reporting Station
Overcast Overcast  
Wind Chill: 28°   Ceiling: 3300
Heat Index: 34°   Visibility: 7mi
Dew Point: 31°   Wind: 7mph
Humidity: 89%   Direction: 150°SSE
Pressure: 30.25"   Gusts: NA
Location:  39.97°N, 89.35°W
Report Text: KAAA 210535Z AUTO 15006KT 7SM OVC033 01/00 A3025 RMK AO2 T00131003
Loading
Personal Weather Stations






























Interactive Weather Map New forecast layout! Learn more

10-Day Weather Forecast

Advertisements
Track Severe Weather on mobile